sensor_id;sensor_type;location;lat;lon;timestamp;pressure;altitude;pressure_sealevel;temperature;humidity
32081;BME280;18593;51.426;7.030;2023-01-26T00:01:52;101470.66;;;3.14;58.77
32081;BME280;18593;51.426;7.030;2023-01-26T00:04:20;101469.94;;;3.12;58.63
32081;BME280;18593;51.426;7.030;2023-01-26T00:06:47;101478.81;;;3.10;58.58
32081;BME280;18593;51.426;7.030;2023-01-26T00:09:14;101477.03;;;3.11;58.86
32081;BME280;18593;51.426;7.030;2023-01-26T00:11:42;101464.69;;;3.12;58.63
32081;BME280;18593;51.426;7.030;2023-01-26T00:14:09;101457.06;;;3.08;58.83
32081;BME280;18593;51.426;7.030;2023-01-26T00:16:36;101451.09;;;3.06;58.91
32081;BME280;18593;51.426;7.030;2023-01-26T00:19:03;101442.75;;;3.11;58.91
32081;BME280;18593;51.426;7.030;2023-01-26T00:21:30;101434.16;;;3.09;59.01
32081;BME280;18593;51.426;7.030;2023-01-26T00:23:59;101430.81;;;3.07;59.15
32081;BME280;18593;51.426;7.030;2023-01-26T00:26:27;101431.13;;;3.04;59.53
32081;BME280;18593;51.426;7.030;2023-01-26T00:28:55;101422.25;;;3.05;59.63
32081;BME280;18593;51.426;7.030;2023-01-26T00:31:24;101423.22;;;3.04;59.39
32081;BME280;18593;51.426;7.030;2023-01-26T00:33:52;101418.50;;;2.98;59.73
32081;BME280;18593;51.426;7.030;2023-01-26T00:36:20;101420.59;;;3.04;59.86
32081;BME280;18593;51.426;7.030;2023-01-26T00:38:47;101416.56;;;3.00;59.77
32081;BME280;18593;51.426;7.030;2023-01-26T00:41:14;101408.66;;;3.00;59.87
32081;BME280;18593;51.426;7.030;2023-01-26T00:43:56;101402.56;;;2.99;60.04
32081;BME280;18593;51.426;7.030;2023-01-26T00:46:25;101393.53;;;2.92;60.14
32081;BME280;18593;51.426;7.030;2023-01-26T00:48:52;101387.31;;;2.93;60.27
32081;BME280;18593;51.426;7.030;2023-01-26T00:51:19;101396.44;;;2.89;60.65
32081;BME280;18593;51.426;7.030;2023-01-26T00:53:46;101392.16;;;2.88;60.63
32081;BME280;18593;51.426;7.030;2023-01-26T00:56:13;101401.72;;;2.89;61.05
32081;BME280;18593;51.426;7.030;2023-01-26T00:58:40;101387.56;;;2.90;61.10
32081;BME280;18593;51.426;7.030;2023-01-26T01:01:12;101385.50;;;2.94;60.79
32081;BME280;18593;51.426;7.030;2023-01-26T01:03:41;101377.59;;;2.94;61.00
32081;BME280;18593;51.426;7.030;2023-01-26T01:06:08;101390.06;;;2.92;61.05
32081;BME280;18593;51.426;7.030;2023-01-26T01:08:35;101387.31;;;2.93;61.00
32081;BME280;18593;51.426;7.030;2023-01-26T01:11:04;101382.88;;;2.94;60.63
32081;BME280;18593;51.426;7.030;2023-01-26T01:13:31;101374.97;;;2.94;60.86
32081;BME280;18593;51.426;7.030;2023-01-26T01:15:58;101372.59;;;2.91;60.89
32081;BME280;18593;51.426;7.030;2023-01-26T01:18:26;101381.47;;;2.90;61.30
32081;BME280;18593;51.426;7.030;2023-01-26T01:20:53;101379.66;;;2.90;61.08
32081;BME280;18593;51.426;7.030;2023-01-26T01:23:20;101369.28;;;2.89;61.00
32081;BME280;18593;51.426;7.030;2023-01-26T01:25:55;101375.91;;;2.83;61.18
32081;BME280;18593;51.426;7.030;2023-01-26T01:28:22;101367.19;;;2.82;61.38
32081;BME280;18593;51.426;7.030;2023-01-26T01:30:49;101366.09;;;2.85;61.37
32081;BME280;18593;51.426;7.030;2023-01-26T01:33:16;101377.59;;;2.84;61.58
32081;BME280;18593;51.426;7.030;2023-01-26T01:35:54;101384.78;;;2.82;61.91
32081;BME280;18593;51.426;7.030;2023-01-26T01:38:21;101377.84;;;2.81;62.07
32081;BME280;18593;51.426;7.030;2023-01-26T01:40:48;101384.09;;;2.80;61.79
32081;BME280;18593;51.426;7.030;2023-01-26T01:43:15;101393.09;;;2.77;62.26
32081;BME280;18593;51.426;7.030;2023-01-26T01:45:43;101384.78;;;2.82;62.18
32081;BME280;18593;51.426;7.030;2023-01-26T01:48:14;101382.88;;;2.84;62.00
32081;BME280;18593;51.426;7.030;2023-01-26T01:50:42;101371.19;;;2.87;62.05
32081;BME280;18593;51.426;7.030;2023-01-26T01:53:11;101365.53;;;2.91;61.76
32081;BME280;18593;51.426;7.030;2023-01-26T01:55:40;101379.53;;;2.92;62.07
32081;BME280;18593;51.426;7.030;2023-01-26T01:58:07;101368.56;;;2.96;61.87
32081;BME280;18593;51.426;7.030;2023-01-26T02:00:35;101371.91;;;2.98;62.13
32081;BME280;18593;51.426;7.030;2023-01-26T02:03:03;101367.06;;;3.03;61.89
32081;BME280;18593;51.426;7.030;2023-01-26T02:05:43;101362.06;;;3.00;61.55
32081;BME280;18593;51.426;7.030;2023-01-26T02:08:15;101360.81;;;3.04;61.77
32081;BME280;18593;51.426;7.030;2023-01-26T02:10:46;101349.13;;;3.07;61.54
32081;BME280;18593;51.426;7.030;2023-01-26T02:13:14;101344.00;;;3.05;61.83
32081;BME280;18593;51.426;7.030;2023-01-26T02:15:42;101338.47;;;3.08;61.46
32081;BME280;18593;51.426;7.030;2023-01-26T02:18:09;101341.22;;;3.07;61.46
32081;BME280;18593;51.426;7.030;2023-01-26T02:20:42;101343.34;;;3.03;61.63
32081;BME280;18593;51.426;7.030;2023-01-26T02:23:19;101349.28;;;3.05;61.94
32081;BME280;18593;51.426;7.030;2023-01-26T02:26:06;101337.75;;;3.06;61.82
32081;BME280;18593;51.426;7.030;2023-01-26T02:28:33;101349.44;;;3.04;61.89
32081;BME280;18593;51.426;7.030;2023-01-26T02:31:00;101348.47;;;2.95;62.16
32081;BME280;18593;51.426;7.030;2023-01-26T02:33:31;101339.72;;;2.95;62.24
32081;BME280;18593;51.426;7.030;2023-01-26T02:36:01;101343.47;;;2.92;62.29
32081;BME280;18593;51.426;7.030;2023-01-26T02:38:32;101338.75;;;2.96;62.42
32081;BME280;18593;51.426;7.030;2023-01-26T02:41:05;101337.94;;;2.95;62.19
32081;BME280;18593;51.426;7.030;2023-01-26T02:43:33;101332.66;;;2.95;62.22
32081;BME280;18593;51.426;7.030;2023-01-26T02:46:00;101332.81;;;2.94;62.50
32081;BME280;18593;51.426;7.030;2023-01-26T02:48:26;101334.19;;;2.98;62.16
32081;BME280;18593;51.426;7.030;2023-01-26T02:51:11;101331.56;;;2.88;62.22
32081;BME280;18593;51.426;7.030;2023-01-26T02:53:38;101332.41;;;2.89;62.40
32081;BME280;18593;51.426;7.030;2023-01-26T02:56:07;101329.19;;;2.85;62.47
32081;BME280;18593;51.426;7.030;2023-01-26T02:58:33;101328.78;;;2.90;62.33
32081;BME280;18593;51.426;7.030;2023-01-26T03:01:00;101319.06;;;2.90;62.33
32081;BME280;18593;51.426;7.030;2023-01-26T03:03:28;101324.19;;;2.92;62.43
32081;BME280;18593;51.426;7.030;2023-01-26T03:06:07;101326.56;;;2.95;62.41
32081;BME280;18593;51.426;7.030;2023-01-26T03:08:35;101320.06;;;2.89;62.26
32081;BME280;18593;51.426;7.030;2023-01-26T03:11:02;101323.50;;;2.90;62.66
32081;BME280;18593;51.426;7.030;2023-01-26T03:13:31;101332.81;;;2.84;62.79
32081;BME280;18593;51.426;7.030;2023-01-26T03:15:59;101328.22;;;2.86;62.57
32081;BME280;18593;51.426;7.030;2023-01-26T03:18:32;101318.41;;;2.88;62.74
32081;BME280;18593;51.426;7.030;2023-01-26T03:21:20;101318.25;;;2.90;62.91
32081;BME280;18593;51.426;7.030;2023-01-26T03:24:08;101317.41;;;2.89;62.76
32081;BME280;18593;51.426;7.030;2023-01-26T03:26:54;101310.75;;;2.85;62.80
32081;BME280;18593;51.426;7.030;2023-01-26T03:29:40;101316.03;;;2.85;63.13
32081;BME280;18593;51.426;7.030;2023-01-26T03:32:07;101317.97;;;2.83;62.80
32081;BME280;18593;51.426;7.030;2023-01-26T03:34:34;101320.31;;;2.86;62.90
32081;BME280;18593;51.426;7.030;2023-01-26T03:37:02;101321.16;;;2.87;62.85
32081;BME280;18593;51.426;7.030;2023-01-26T03:39:38;101315.47;;;2.81;63.07
32081;BME280;18593;51.426;7.030;2023-01-26T03:42:23;101316.28;;;2.82;63.37
32081;BME280;18593;51.426;7.030;2023-01-26T03:45:10;101315.75;;;2.88;63.15
32081;BME280;18593;51.426;7.030;2023-01-26T03:48:02;101308.53;;;2.90;63.08
32081;BME280;18593;51.426;7.030;2023-01-26T03:50:46;101313.13;;;2.88;63.20
32081;BME280;18593;51.426;7.030;2023-01-26T03:53:31;101315.88;;;2.87;63.43
32081;BME280;18593;51.426;7.030;2023-01-26T03:56:16;101307.84;;;2.88;63.29
32081;BME280;18593;51.426;7.030;2023-01-26T03:58:50;101301.88;;;2.86;63.35
32081;BME280;18593;51.426;7.030;2023-01-26T04:01:20;101312.69;;;2.83;63.74
32081;BME280;18593;51.426;7.030;2023-01-26T04:03:51;101314.38;;;2.84;63.37
32081;BME280;18593;51.426;7.030;2023-01-26T04:06:38;101318.66;;;2.85;63.33
32081;BME280;18593;51.426;7.030;2023-01-26T04:09:22;101308.41;;;2.82;63.38
32081;BME280;18593;51.426;7.030;2023-01-26T04:11:49;101303.13;;;2.82;63.72
32081;BME280;18593;51.426;7.030;2023-01-26T04:14:16;101312.56;;;2.84;63.35
32081;BME280;18593;51.426;7.030;2023-01-26T04:17:03;101305.34;;;2.87;63.58
32081;BME280;18593;51.426;7.030;2023-01-26T04:19:48;101312.16;;;2.89;63.32
32081;BME280;18593;51.426;7.030;2023-01-26T04:22:35;101313.97;;;2.89;63.39
32081;BME280;18593;51.426;7.030;2023-01-26T04:25:06;101294.69;;;2.88;63.27
32081;BME280;18593;51.426;7.030;2023-01-26T04:27:34;101297.16;;;2.90;63.59
32081;BME280;18593;51.426;7.030;2023-01-26T04:30:03;101298.00;;;2.90;63.45
32081;BME280;18593;51.426;7.030;2023-01-26T04:32:32;101295.38;;;2.90;63.35
32081;BME280;18593;51.426;7.030;2023-01-26T04:34:59;101296.03;;;2.92;63.59
32081;BME280;18593;51.426;7.030;2023-01-26T04:37:28;101294.69;;;2.88;63.54
32081;BME280;18593;51.426;7.030;2023-01-26T04:39:55;101302.59;;;2.88;63.85
32081;BME280;18593;51.426;7.030;2023-01-26T04:42:22;101293.00;;;2.87;63.82
32081;BME280;18593;51.426;7.030;2023-01-26T04:44:50;101299.25;;;2.86;63.71
32081;BME280;18593;51.426;7.030;2023-01-26T04:47:17;101293.00;;;2.87;63.91
32081;BME280;18593;51.426;7.030;2023-01-26T04:49:46;101286.63;;;2.90;64.06
32081;BME280;18593;51.426;7.030;2023-01-26T04:52:17;101295.50;;;2.89;63.97
32081;BME280;18593;51.426;7.030;2023-01-26T04:54:44;101292.31;;;2.85;64.01
32081;BME280;18593;51.426;7.030;2023-01-26T04:57:11;101289.69;;;2.85;64.14
32081;BME280;18593;51.426;7.030;2023-01-26T04:59:42;101292.31;;;2.85;64.20
32081;BME280;18593;51.426;7.030;2023-01-26T05:02:09;101294.25;;;2.83;64.47
32081;BME280;18593;51.426;7.030;2023-01-26T05:04:36;101297.88;;;2.82;64.41
32081;BME280;18593;51.426;7.030;2023-01-26T05:07:04;101303.00;;;2.83;64.23
32081;BME280;18593;51.426;7.030;2023-01-26T05:09:32;101293.41;;;2.82;64.28
32081;BME280;18593;51.426;7.030;2023-01-26T05:12:18;101300.78;;;2.79;64.41
32081;BME280;18593;51.426;7.030;2023-01-26T05:15:21;101286.34;;;2.83;64.50
32081;BME280;18593;51.426;7.030;2023-01-26T05:17:59;101296.63;;;2.86;64.42
32081;BME280;18593;51.426;7.030;2023-01-26T05:20:44;101293.31;;;2.84;64.61
32081;BME280;18593;51.426;7.030;2023-01-26T05:23:25;101291.34;;;2.86;64.52
32081;BME280;18593;51.426;7.030;2023-01-26T05:26:14;101296.63;;;2.86;64.35
32081;BME280;18593;51.426;7.030;2023-01-26T05:28:55;101303.00;;;2.83;64.60
32081;BME280;18593;51.426;7.030;2023-01-26T05:31:22;101293.31;;;2.84;64.59
32081;BME280;18593;51.426;7.030;2023-01-26T05:33:49;101297.59;;;2.85;64.63
32081;BME280;18593;51.426;7.030;2023-01-26T05:36:20;101301.19;;;2.84;64.69
32081;BME280;18593;51.426;7.030;2023-01-26T05:38:49;101309.94;;;2.84;64.82
32081;BME280;18593;51.426;7.030;2023-01-26T05:41:19;101309.22;;;2.82;64.75
32081;BME280;18593;51.426;7.030;2023-01-26T05:44:06;101306.31;;;2.86;64.69
32081;BME280;18593;51.426;7.030;2023-01-26T05:46:37;101307.84;;;2.88;64.76
32081;BME280;18593;51.426;7.030;2023-01-26T05:49:04;101311.03;;;2.82;64.70
32081;BME280;18593;51.426;7.030;2023-01-26T05:51:32;101310.91;;;2.83;64.82
32081;BME280;18593;51.426;7.030;2023-01-26T05:54:00;101318.09;;;2.81;64.70
32081;BME280;18593;51.426;7.030;2023-01-26T05:56:27;101315.47;;;2.81;65.00
32081;BME280;18593;51.426;7.030;2023-01-26T05:58:58;101317.97;;;2.83;65.15
32081;BME280;18593;51.426;7.030;2023-01-26T06:01:27;101311.59;;;2.86;65.02
32081;BME280;18593;51.426;7.030;2023-01-26T06:03:58;101313.13;;;2.88;64.91
32081;BME280;18593;51.426;7.030;2023-01-26T06:06:29;101314.63;;;2.91;65.17
32081;BME280;18593;51.426;7.030;2023-01-26T06:09:09;101310.63;;;2.87;64.87
32081;BME280;18593;51.426;7.030;2023-01-26T06:11:55;101316.03;;;2.85;64.98
32081;BME280;18593;51.426;7.030;2023-01-26T06:14:38;101314.91;;;2.88;65.06
32081;BME280;18593;51.426;7.030;2023-01-26T06:17:05;101308.38;;;2.92;65.18
32081;BME280;18593;51.426;7.030;2023-01-26T06:19:32;101313.66;;;2.92;64.86
32081;BME280;18593;51.426;7.030;2023-01-26T06:22:01;101313.53;;;2.93;65.18
32081;BME280;18593;51.426;7.030;2023-01-26T06:24:30;101313.53;;;2.93;65.13
32081;BME280;18593;51.426;7.030;2023-01-26T06:26:59;101317.41;;;2.89;65.02
32081;BME280;18593;51.426;7.030;2023-01-26T06:29:26;101309.22;;;2.92;65.10
32081;BME280;18593;51.426;7.030;2023-01-26T06:31:53;101307.28;;;2.94;65.37
32081;BME280;18593;51.426;7.030;2023-01-26T06:34:20;101300.22;;;2.95;65.20
32081;BME280;18593;51.426;7.030;2023-01-26T06:36:48;101297.72;;;2.93;65.27
32081;BME280;18593;51.426;7.030;2023-01-26T06:39:24;101306.59;;;2.92;65.09
32081;BME280;18593;51.426;7.030;2023-01-26T06:41:53;101306.31;;;2.95;65.39
32081;BME280;18593;51.426;7.030;2023-01-26T06:44:20;101307.28;;;2.94;65.73
32081;BME280;18593;51.426;7.030;2023-01-26T06:46:47;101313.25;;;2.96;65.33
32081;BME280;18593;51.426;7.030;2023-01-26T06:49:14;101309.09;;;2.94;65.49
32081;BME280;18593;51.426;7.030;2023-01-26T06:51:47;101327.38;;;2.95;65.29
32081;BME280;18593;51.426;7.030;2023-01-26T06:54:18;101317.41;;;2.99;65.40
32081;BME280;18593;51.426;7.030;2023-01-26T06:57:01;101331.00;;;2.94;65.39
32081;BME280;18593;51.426;7.030;2023-01-26T06:59:40;101328.38;;;2.94;65.21
32081;BME280;18593;51.426;7.030;2023-01-26T07:02:16;101324.06;;;2.93;65.31
32081;BME280;18593;51.426;7.030;2023-01-26T07:04:44;101316.03;;;2.95;65.83
32081;BME280;18593;51.426;7.030;2023-01-26T07:07:11;101321.44;;;2.93;65.55
32081;BME280;18593;51.426;7.030;2023-01-26T07:09:38;101310.75;;;2.95;65.39
32081;BME280;18593;51.426;7.030;2023-01-26T07:12:06;101320.16;;;2.97;65.20
32081;BME280;18593;51.426;7.030;2023-01-26T07:14:34;101313.78;;;3.00;65.26
32081;BME280;18593;51.426;7.030;2023-01-26T07:17:01;101312.97;;;2.99;65.39
32081;BME280;18593;51.426;7.030;2023-01-26T07:19:28;101315.03;;;2.96;65.50
32081;BME280;18593;51.426;7.030;2023-01-26T07:21:57;101313.38;;;2.95;65.65
32081;BME280;18593;51.426;7.030;2023-01-26T07:24:24;101319.91;;;2.91;66.03
32081;BME280;18593;51.426;7.030;2023-01-26T07:26:51;101310.91;;;2.93;65.95
32081;BME280;18593;51.426;7.030;2023-01-26T07:29:20;101312.69;;;2.93;65.77
32081;BME280;18593;51.426;7.030;2023-01-26T07:31:47;101324.19;;;2.92;65.84
32081;BME280;18593;51.426;7.030;2023-01-26T07:34:14;101324.06;;;2.93;65.96
32081;BME280;18593;51.426;7.030;2023-01-26T07:36:41;101328.22;;;2.96;65.92
32081;BME280;18593;51.426;7.030;2023-01-26T07:39:08;101319.22;;;2.98;65.90
32081;BME280;18593;51.426;7.030;2023-01-26T07:41:35;101323.50;;;2.99;65.55
32081;BME280;18593;51.426;7.030;2023-01-26T07:44:15;101312.41;;;2.96;66.01
32081;BME280;18593;51.426;7.030;2023-01-26T07:46:43;101316.03;;;2.95;66.16
32081;BME280;18593;51.426;7.030;2023-01-26T07:49:10;101317.41;;;2.99;66.09
32081;BME280;18593;51.426;7.030;2023-01-26T07:51:38;101321.53;;;3.01;65.90
32081;BME280;18593;51.426;7.030;2023-01-26T07:54:05;101321.28;;;3.04;65.59
32081;BME280;18593;51.426;7.030;2023-01-26T07:56:32;101323.50;;;2.99;65.68
32081;BME280;18593;51.426;7.030;2023-01-26T07:58:59;101326.69;;;3.03;66.10
32081;BME280;18593;51.426;7.030;2023-01-26T08:01:26;101318.09;;;3.01;65.82
32081;BME280;18593;51.426;7.030;2023-01-26T08:03:54;101317.81;;;3.04;66.11
32081;BME280;18593;51.426;7.030;2023-01-26T08:06:21;101316.28;;;3.01;65.70
32081;BME280;18593;51.426;7.030;2023-01-26T08:08:50;101325.72;;;2.94;65.88
32081;BME280;18593;51.426;7.030;2023-01-26T08:11:18;101325.72;;;2.94;66.12
32081;BME280;18593;51.426;7.030;2023-01-26T08:13:47;101328.94;;;2.98;66.44
32081;BME280;18593;51.426;7.030;2023-01-26T08:16:14;101318.25;;;2.99;66.28
32081;BME280;18593;51.426;7.030;2023-01-26T08:18:42;101321.69;;;3.00;66.30
32081;BME280;18593;51.426;7.030;2023-01-26T08:21:12;101342.34;;;3.04;66.18
32081;BME280;18593;51.426;7.030;2023-01-26T08:23:40;101345.00;;;3.04;66.35
32081;BME280;18593;51.426;7.030;2023-01-26T08:26:22;101342.63;;;3.01;66.73
32081;BME280;18593;51.426;7.030;2023-01-26T08:28:49;101347.22;;;2.99;66.59
32081;BME280;18593;51.426;7.030;2023-01-26T08:31:17;101350.84;;;2.98;66.58
32081;BME280;18593;51.426;7.030;2023-01-26T08:33:45;101354.28;;;2.99;66.74
32081;BME280;18593;51.426;7.030;2023-01-26T08:36:14;101348.19;;;2.98;66.58
32081;BME280;18593;51.426;7.030;2023-01-26T08:38:42;101342.22;;;2.96;66.57
32081;BME280;18593;51.426;7.030;2023-01-26T08:41:10;101345.56;;;2.89;67.22
32081;BME280;18593;51.426;7.030;2023-01-26T08:43:37;101346.50;;;2.88;67.08
32081;BME280;18593;51.426;7.030;2023-01-26T08:46:04;101350.53;;;2.92;67.01
32081;BME280;18593;51.426;7.030;2023-01-26T08:48:31;101350.53;;;2.92;67.15
32081;BME280;18593;51.426;7.030;2023-01-26T08:51:00;101356.63;;;2.92;67.43
32081;BME280;18593;51.426;7.030;2023-01-26T08:53:31;101350.41;;;2.93;67.27
32081;BME280;18593;51.426;7.030;2023-01-26T08:56:00;101365.25;;;2.94;67.19
32081;BME280;18593;51.426;7.030;2023-01-26T08:58:26;101354.41;;;2.97;67.33
32081;BME280;18593;51.426;7.030;2023-01-26T09:00:54;101351.50;;;3.00;67.00
32081;BME280;18593;51.426;7.030;2023-01-26T09:03:21;101351.34;;;3.02;66.94
32081;BME280;18593;51.426;7.030;2023-01-26T09:05:48;101360.66;;;3.06;67.34
32081;BME280;18593;51.426;7.030;2023-01-26T09:08:15;101358.72;;;3.08;67.04
32081;BME280;18593;51.426;7.030;2023-01-26T09:10:43;101348.31;;;3.06;66.98
32081;BME280;18593;51.426;7.030;2023-01-26T09:13:10;101359.56;;;3.08;67.09
32081;BME280;18593;51.426;7.030;2023-01-26T09:15:37;101360.22;;;3.10;67.16
32081;BME280;18593;51.426;7.030;2023-01-26T09:18:04;101362.59;;;3.14;67.42
32081;BME280;18593;51.426;7.030;2023-01-26T09:20:31;101359.13;;;3.13;67.45
32081;BME280;18593;51.426;7.030;2023-01-26T09:22:58;101375.38;;;3.08;67.60
32081;BME280;18593;51.426;7.030;2023-01-26T09:25:25;101374.53;;;3.08;67.43
32081;BME280;18593;51.426;7.030;2023-01-26T09:27:54;101374.13;;;3.03;67.80
32081;BME280;18593;51.426;7.030;2023-01-26T09:30:21;101376.47;;;3.06;68.13
32081;BME280;18593;51.426;7.030;2023-01-26T09:32:49;101371.91;;;3.08;68.04
32081;BME280;18593;51.426;7.030;2023-01-26T09:35:16;101372.16;;;3.05;68.13
32081;BME280;18593;51.426;7.030;2023-01-26T09:37:43;101372.03;;;3.06;68.40
32081;BME280;18593;51.426;7.030;2023-01-26T09:40:15;101386.88;;;3.07;68.59
32081;BME280;18593;51.426;7.030;2023-01-26T09:42:49;101371.75;;;3.09;68.53
32081;BME280;18593;51.426;7.030;2023-01-26T09:45:28;101373.41;;;3.10;68.55
32081;BME280;18593;51.426;7.030;2023-01-26T09:48:10;101368.00;;;3.12;68.49
32081;BME280;18593;51.426;7.030;2023-01-26T09:50:40;101369.78;;;3.12;68.41
32081;BME280;18593;51.426;7.030;2023-01-26T09:53:11;101370.50;;;3.14;68.83
32081;BME280;18593;51.426;7.030;2023-01-26T09:55:40;101366.47;;;3.09;68.89
32081;BME280;18593;51.426;7.030;2023-01-26T09:58:11;101362.19;;;3.08;69.21
32081;BME280;18593;51.426;7.030;2023-01-26T10:00:43;101367.16;;;3.12;69.11
32081;BME280;18593;51.426;7.030;2023-01-26T10:03:16;101361.63;;;3.15;69.14
32081;BME280;18593;51.426;7.030;2023-01-26T10:05:46;101361.63;;;3.15;69.10
32081;BME280;18593;51.426;7.030;2023-01-26T10:08:36;101360.66;;;3.06;69.38
32081;BME280;18593;51.426;7.030;2023-01-26T10:11:04;101357.19;;;3.05;69.44
32081;BME280;18593;51.426;7.030;2023-01-26T10:13:35;101361.38;;;3.08;69.49
32081;BME280;18593;51.426;7.030;2023-01-26T10:16:06;101354.28;;;3.08;69.55
32081;BME280;18593;51.426;7.030;2023-01-26T10:18:39;101358.56;;;3.09;69.52
32081;BME280;18593;51.426;7.030;2023-01-26T10:21:10;101357.91;;;3.07;69.57
32081;BME280;18593;51.426;7.030;2023-01-26T10:23:38;101356.50;;;3.03;69.95
32081;BME280;18593;51.426;7.030;2023-01-26T10:26:11;101352.63;;;3.07;70.26
32081;BME280;18593;51.426;7.030;2023-01-26T10:28:38;101347.06;;;3.10;69.96
32081;BME280;18593;51.426;7.030;2023-01-26T10:31:11;101345.97;;;3.13;69.91
32081;BME280;18593;51.426;7.030;2023-01-26T10:33:41;101343.16;;;3.15;70.03
32081;BME280;18593;51.426;7.030;2023-01-26T10:36:10;101334.00;;;3.19;69.79
32081;BME280;18593;51.426;7.030;2023-01-26T10:38:39;101324.31;;;3.19;69.97
32081;BME280;18593;51.426;7.030;2023-01-26T10:41:26;101336.34;;;3.22;69.82
32081;BME280;18593;51.426;7.030;2023-01-26T10:43:55;101333.72;;;3.22;70.11
32081;BME280;18593;51.426;7.030;2023-01-26T10:46:26;101332.88;;;3.21;69.82
32081;BME280;18593;51.426;7.030;2023-01-26T10:48:54;101330.13;;;3.23;69.93
32081;BME280;18593;51.426;7.030;2023-01-26T10:51:26;101331.78;;;3.24;70.13
32081;BME280;18593;51.426;7.030;2023-01-26T10:54:23;101329.72;;;3.27;69.96
32081;BME280;18593;51.426;7.030;2023-01-26T10:56:51;101318.84;;;3.30;70.16
32081;BME280;18593;51.426;7.030;2023-01-26T10:59:26;101332.88;;;3.31;70.46
32081;BME280;18593;51.426;7.030;2023-01-26T11:01:56;101330.94;;;3.33;70.07
32081;BME280;18593;51.426;7.030;2023-01-26T11:04:25;101331.47;;;3.27;70.16
32081;BME280;18593;51.426;7.030;2023-01-26T11:06:52;101328.16;;;3.25;70.63
32081;BME280;18593;51.426;7.030;2023-01-26T11:09:26;101322.75;;;3.26;70.83
32081;BME280;18593;51.426;7.030;2023-01-26T11:11:56;101322.63;;;3.28;70.83
32081;BME280;18593;51.426;7.030;2023-01-26T11:14:23;101322.19;;;3.32;71.02
32081;BME280;18593;51.426;7.030;2023-01-26T11:16:53;101322.03;;;3.34;70.60
32081;BME280;18593;51.426;7.030;2023-01-26T11:19:50;101315.13;;;3.33;71.00
32081;BME280;18593;51.426;7.030;2023-01-26T11:22:23;101313.47;;;3.32;70.94
32081;BME280;18593;51.426;7.030;2023-01-26T11:24:55;101314.41;;;3.31;71.31
32081;BME280;18593;51.426;7.030;2023-01-26T11:27:31;101316.78;;;3.34;71.21
32081;BME280;18593;51.426;7.030;2023-01-26T11:30:13;101309.53;;;3.36;71.33
32081;BME280;18593;51.426;7.030;2023-01-26T11:32:48;101313.97;;;3.35;70.97
32081;BME280;18593;51.426;7.030;2023-01-26T11:35:26;101316.78;;;3.34;71.82
32081;BME280;18593;51.426;7.030;2023-01-26T11:37:57;101318.44;;;3.35;71.81
32081;BME280;18593;51.426;7.030;2023-01-26T11:40:31;101317.59;;;3.34;71.41
32081;BME280;18593;51.426;7.030;2023-01-26T11:43:18;101321.78;;;3.37;71.78
32081;BME280;18593;51.426;7.030;2023-01-26T11:45:58;101314.81;;;3.36;71.91
32081;BME280;18593;51.426;7.030;2023-01-26T11:48:32;101314.53;;;3.39;71.80
32081;BME280;18593;51.426;7.030;2023-01-26T11:51:04;101301.34;;;3.39;71.58
32081;BME280;18593;51.426;7.030;2023-01-26T11:53:49;101308.28;;;3.40;71.67
32081;BME280;18593;51.426;7.030;2023-01-26T11:56:28;101317.03;;;3.41;71.51
32081;BME280;18593;51.426;7.030;2023-01-26T11:59:00;101306.63;;;3.39;71.81
32081;BME280;18593;51.426;7.030;2023-01-26T12:01:32;101304.16;;;3.38;71.98
32081;BME280;18593;51.426;7.030;2023-01-26T12:03:59;101294.44;;;3.38;71.99
32081;BME280;18593;51.426;7.030;2023-01-26T12:06:33;101293.28;;;3.41;72.04
32081;BME280;18593;51.426;7.030;2023-01-26T12:09:03;101294.13;;;3.41;72.27
32081;BME280;18593;51.426;7.030;2023-01-26T12:11:37;101293.44;;;3.39;72.28
32081;BME280;18593;51.426;7.030;2023-01-26T12:14:12;101285.25;;;3.42;71.96
32081;BME280;18593;51.426;7.030;2023-01-26T12:19:53;101279.81;;;3.44;72.27
32081;BME280;18593;51.426;7.030;2023-01-26T12:22:32;101277.88;;;3.46;72.42
32081;BME280;18593;51.426;7.030;2023-01-26T12:25:03;101278.84;;;3.45;72.16
32081;BME280;18593;51.426;7.030;2023-01-26T12:27:34;101277.78;;;3.38;72.25
32081;BME280;18593;51.426;7.030;2023-01-26T12:30:04;101281.53;;;3.35;72.46
32081;BME280;18593;51.426;7.030;2023-01-26T12:32:35;101268.19;;;3.36;72.82
32081;BME280;18593;51.426;7.030;2023-01-26T12:35:02;101262.78;;;3.38;72.85
32081;BME280;18593;51.426;7.030;2023-01-26T12:37:43;101268.72;;;3.40;72.89
32081;BME280;18593;51.426;7.030;2023-01-26T12:40:32;101266.09;;;3.40;73.10
32081;BME280;18593;51.426;7.030;2023-01-26T12:43:11;101253.47;;;3.44;73.39
32081;BME280;18593;51.426;7.030;2023-01-26T12:45:40;101240.13;;;3.45;73.22
32081;BME280;18593;51.426;7.030;2023-01-26T12:48:11;101249.69;;;3.46;73.06
32081;BME280;18593;51.426;7.030;2023-01-26T12:50:43;101243.47;;;3.47;73.09
32081;BME280;18593;51.426;7.030;2023-01-26T12:53:15;101245.41;;;3.45;73.20
32081;BME280;18593;51.426;7.030;2023-01-26T12:55:46;101245.13;;;3.48;73.29
32081;BME280;18593;51.426;7.030;2023-01-26T12:58:17;101246.63;;;3.51;73.08
32081;BME280;18593;51.426;7.030;2023-01-26T13:00:55;101245.78;;;3.50;73.18
32081;BME280;18593;51.426;7.030;2023-01-26T13:03:27;101242.47;;;3.48;73.21
32081;BME280;18593;51.426;7.030;2023-01-26T13:05:59;101247.59;;;3.50;73.21
32081;BME280;18593;51.426;7.030;2023-01-26T13:08:48;101244.81;;;3.51;72.96
32081;BME280;18593;51.426;7.030;2023-01-26T13:11:40;101256.06;;;3.53;73.50
32081;BME280;18593;51.426;7.030;2023-01-26T13:14:23;101247.00;;;3.56;73.14
32081;BME280;18593;51.426;7.030;2023-01-26T13:16:50;101248.81;;;3.55;73.44
32081;BME280;18593;51.426;7.030;2023-01-26T13:19:33;101248.16;;;3.53;73.45
32081;BME280;18593;51.426;7.030;2023-01-26T13:22:00;101246.19;;;3.55;73.14
32081;BME280;18593;51.426;7.030;2023-01-26T13:24:47;101248.00;;;3.55;73.41
32081;BME280;18593;51.426;7.030;2023-01-26T13:27:28;101246.34;;;3.54;73.25